createdAt,value
2019-03-16T00:02:07.344Z,100293.72
2019-03-16T00:04:37.304Z,100286.39
2019-03-16T00:07:06.967Z,100289.73
2019-03-16T00:09:36.919Z,100292.23
2019-03-16T00:12:06.591Z,100300.02
2019-03-16T00:14:36.301Z,100299.66
2019-03-16T00:17:07.027Z,100303.45
2019-03-16T00:19:36.967Z,100315.44
2019-03-16T00:22:06.900Z,100315.05
2019-03-16T00:24:36.574Z,100322.77
2019-03-16T00:27:06.252Z,100314.98
2019-03-16T00:29:36.074Z,100311.83
2019-03-16T00:32:13.446Z,100304.30
2019-03-16T00:34:42.193Z,100310.73
2019-03-16T00:37:13.349Z,100306.83
2019-03-16T00:39:43.027Z,100294.20
2019-03-16T00:42:12.884Z,100304.43
2019-03-16T00:44:42.531Z,100314.33
2019-03-16T00:47:12.447Z,100306.09
2019-03-16T00:49:43.429Z,100306.64
2019-03-16T00:52:13.497Z,100308.59
2019-03-16T00:54:43.169Z,100316.38
2019-03-16T00:57:13.084Z,100309.88
2019-03-16T00:59:43.013Z,100308.88
2019-03-16T01:02:26.118Z,100322.25
2019-03-16T01:04:44.389Z,100334.39
2019-03-16T01:07:14.218Z,100330.50
2019-03-16T01:09:44.244Z,100325.66
2019-03-16T01:12:14.150Z,100328.74
2019-03-16T01:14:43.854Z,100336.05
2019-03-16T01:17:13.771Z,100336.53
2019-03-16T01:19:43.451Z,100331.34
2019-03-16T01:22:13.291Z,100343.03
2019-03-16T01:24:42.966Z,100338.65
2019-03-16T01:27:12.647Z,100336.89
2019-03-16T01:29:42.327Z,100336.44
2019-03-16T01:32:12.009Z,100334.69
2019-03-16T01:34:44.219Z,100342.73
2019-03-16T01:37:13.428Z,100339.69
2019-03-16T01:39:43.335Z,100335.34
2019-03-16T01:42:13.990Z,100331.80
2019-03-16T01:44:43.665Z,100326.14
2019-03-16T01:47:13.345Z,100321.41
2019-03-16T01:49:43.020Z,100332.09
2019-03-16T01:52:13.652Z,100322.44
2019-03-16T01:54:43.327Z,100323.28
2019-03-16T01:57:13.001Z,100325.69
2019-03-16T01:59:42.672Z,100320.42
2019-03-16T02:02:12.336Z,100321.33
2019-03-16T02:04:42.096Z,100324.31
2019-03-16T02:07:11.998Z,100326.43
2019-03-16T02:09:41.695Z,100345.66
2019-03-16T02:12:11.390Z,100345.66
2019-03-16T02:14:41.076Z,100343.41
2019-03-16T02:17:10.857Z,100339.16
2019-03-16T02:19:41.544Z,100343.97
2019-03-16T02:22:11.220Z,100343.41
2019-03-16T02:24:40.898Z,100329.52
2019-03-16T02:27:10.561Z,100326.53
2019-03-16T02:29:40.221Z,100346.02
2019-03-16T02:32:09.932Z,100346.56
2019-03-16T02:34:39.663Z,100350.92
2019-03-16T02:37:09.344Z,100347.86
2019-03-16T02:39:39.286Z,100342.67
2019-03-16T02:42:08.971Z,100353.45
2019-03-16T02:44:38.606Z,100357.25
2019-03-16T02:47:08.757Z,100360.76
2019-03-16T02:49:38.558Z,100358.25
2019-03-16T02:52:08.446Z,100360.86
2019-03-16T02:54:38.121Z,100360.86
2019-03-16T02:57:07.778Z,100360.11
2019-03-16T02:59:37.451Z,100354.45
2019-03-16T03:02:07.238Z,100362.16
2019-03-16T03:04:36.908Z,100363.45
2019-03-16T03:07:06.597Z,100363.55
2019-03-16T03:09:44.849Z,100364.46
2019-03-16T03:12:14.616Z,100364.95
2019-03-16T03:14:44.296Z,100362.35
2019-03-16T03:17:13.955Z,100365.50
2019-03-16T03:19:43.653Z,100366.51
2019-03-16T03:22:13.320Z,100360.37
2019-03-16T03:24:44.452Z,100358.26
2019-03-16T03:27:14.532Z,100359.56
2019-03-16T03:29:44.597Z,100356.57
2019-03-16T03:32:14.271Z,100363.45
2019-03-16T03:34:43.956Z,100355.83
2019-03-16T03:37:13.706Z,100352.31
2019-03-16T03:39:43.399Z,100352.77
2019-03-16T03:42:13.049Z,100356.28
2019-03-16T03:44:43.003Z,100361.02
2019-03-16T03:47:13.882Z,100360.17
2019-03-16T03:49:43.724Z,100360.17
2019-03-16T03:52:13.432Z,100354.98
2019-03-16T03:54:43.316Z,100357.87
2019-03-16T03:57:12.978Z,100358.72
2019-03-16T03:59:42.722Z,100362.91
2019-03-16T04:02:12.413Z,100358.72
2019-03-16T04:04:42.146Z,100352.58
2019-03-16T04:07:11.891Z,100351.38
2019-03-16T04:09:41.581Z,100351.77
2019-03-16T04:12:11.554Z,100350.27
2019-03-16T04:14:41.213Z,100338.87
2019-03-16T04:17:10.984Z,100336.73
2019-03-16T04:19:40.662Z,100340.62
2019-03-16T04:22:10.526Z,100328.84
2019-03-16T04:24:40.276Z,100334.69
2019-03-16T04:27:16.415Z,100329.13
2019-03-16T04:29:41.328Z,100331.73
2019-03-16T04:32:11.000Z,100329.88
2019-03-16T04:34:40.687Z,100319.55
2019-03-16T04:37:10.355Z,100325.59
2019-03-16T04:39:40.256Z,100327.44
2019-03-16T04:42:09.935Z,100332.64
2019-03-16T04:44:39.607Z,100340.82
2019-03-16T04:47:09.355Z,100338.77
2019-03-16T04:49:39.023Z,100336.34
2019-03-16T04:52:09.023Z,100317.31
2019-03-16T04:54:38.950Z,100319.81
2019-03-16T04:57:08.947Z,100324.63
2019-03-16T04:59:39.849Z,100329.46
2019-03-16T05:02:09.520Z,100326.77
2019-03-16T05:04:42.796Z,100323.33
2019-03-16T05:07:11.599Z,100318.52
2019-03-16T05:09:41.519Z,100311.09
2019-03-16T05:12:11.213Z,100305.63
2019-03-16T05:14:40.895Z,100315.83
2019-03-16T05:17:10.562Z,100311.09
2019-03-16T05:19:40.502Z,100307.19
2019-03-16T05:22:10.164Z,100305.53
2019-03-16T05:24:40.090Z,100312.03
2019-03-16T05:27:09.869Z,100312.03
2019-03-16T05:29:39.559Z,100313.39
2019-03-16T05:32:09.265Z,100314.78
2019-03-16T05:34:39.055Z,100315.63
2019-03-16T05:37:08.707Z,100313.88
2019-03-16T05:39:39.603Z,100312.58
2019-03-16T05:42:09.285Z,100313.13
2019-03-16T05:44:39.471Z,100313.95
2019-03-16T05:47:09.406Z,100317.84
2019-03-16T05:49:39.079Z,100313.59
2019-03-16T05:52:08.740Z,100313.20
2019-03-16T05:54:38.658Z,100313.00
2019-03-16T05:57:08.368Z,100313.30
2019-03-16T05:59:38.075Z,100298.91
2019-03-16T06:02:08.080Z,100300.95
2019-03-16T06:04:38.714Z,100300.15
2019-03-16T06:07:08.390Z,100294.86
2019-03-16T06:09:38.079Z,100291.61
2019-03-16T06:12:08.151Z,100288.10
2019-03-16T06:14:37.836Z,100288.45
2019-03-16T06:17:07.646Z,100295.24
2019-03-16T06:19:37.580Z,100300.73
2019-03-16T06:22:07.246Z,100287.73
2019-03-16T06:24:36.913Z,100281.31
2019-03-16T06:27:06.570Z,100283.34
2019-03-16T06:29:36.233Z,100279.90
2019-03-16T06:32:05.908Z,100274.77
2019-03-16T06:34:36.555Z,100266.98
2019-03-16T06:37:06.279Z,100263.83
2019-03-16T06:39:36.219Z,100248.74
2019-03-16T06:42:05.979Z,100245.40
2019-03-16T06:44:35.666Z,100242.42
2019-03-16T06:47:05.401Z,100254.42
2019-03-16T06:49:35.110Z,100248.19
2019-03-16T06:52:05.246Z,100245.70
2019-03-16T06:54:34.952Z,100243.81
2019-03-16T06:57:04.775Z,100242.16
2019-03-16T06:59:34.641Z,100232.68
2019-03-16T07:02:04.916Z,100228.23
2019-03-16T07:04:34.861Z,100214.58
2019-03-16T07:07:06.126Z,100216.17
2019-03-16T07:09:35.790Z,100215.72
2019-03-16T07:12:05.529Z,100207.09
2019-03-16T07:14:35.202Z,100207.64
2019-03-16T07:17:05.127Z,100208.38
2019-03-16T07:19:34.821Z,100208.38
2019-03-16T07:22:05.125Z,100206.05
2019-03-16T07:24:35.308Z,100210.42
2019-03-16T07:27:05.277Z,100211.83
2019-03-16T07:29:34.961Z,100208.58
2019-03-16T07:32:05.163Z,100212.86
2019-03-16T07:34:35.086Z,100194.96
2019-03-16T07:37:05.726Z,100191.16
2019-03-16T07:39:35.399Z,100183.02
2019-03-16T07:42:05.158Z,100177.28
2019-03-16T07:44:34.838Z,100178.09
2019-03-16T07:47:05.220Z,100170.59
2019-03-16T07:49:34.927Z,100169.23
2019-03-16T07:52:05.188Z,100166.27
2019-03-16T07:54:35.132Z,100168.11
2019-03-16T07:57:05.034Z,100163.07
2019-03-16T07:59:37.091Z,100162.87
2019-03-16T08:02:06.213Z,100166.21
2019-03-16T08:04:37.495Z,100163.45
2019-03-16T08:07:07.172Z,100152.96
2019-03-16T08:09:37.678Z,100145.36
2019-03-16T08:12:07.501Z,100131.05
2019-03-16T08:14:37.345Z,100139.52
2019-03-16T08:17:07.347Z,100132.26
2019-03-16T08:19:37.117Z,100130.30
2019-03-16T08:22:06.900Z,100130.02
2019-03-16T08:24:36.825Z,100120.27
2019-03-16T08:27:07.652Z,100120.44
2019-03-16T08:29:37.792Z,100110.72
2019-03-16T08:32:07.486Z,100101.70
2019-03-16T08:34:37.674Z,100103.62
2019-03-16T08:37:07.860Z,100094.07
2019-03-16T08:39:37.858Z,100087.13
2019-03-16T08:42:07.785Z,100086.80
2019-03-16T08:44:37.501Z,100084.59
2019-03-16T08:47:07.180Z,100080.41
2019-03-16T08:49:37.111Z,100077.31
2019-03-16T08:52:06.894Z,100077.80
2019-03-16T08:54:36.987Z,100075.62
2019-03-16T08:57:07.263Z,100064.30
2019-03-16T08:59:37.119Z,100071.95
2019-03-16T09:02:06.861Z,100073.70
2019-03-16T09:04:36.658Z,100079.69
2019-03-16T09:07:06.337Z,100062.38
2019-03-16T09:09:36.069Z,100061.41
2019-03-16T09:12:05.733Z,100057.32
2019-03-16T09:14:35.744Z,100057.99
2019-03-16T09:17:05.511Z,100054.98
2019-03-16T09:19:35.263Z,100042.67
2019-03-16T09:22:05.052Z,100041.30
2019-03-16T09:24:34.745Z,100043.48
2019-03-16T09:27:05.354Z,100038.74
2019-03-16T09:29:35.220Z,100042.95
2019-03-16T09:32:05.005Z,100048.12
2019-03-16T09:34:34.702Z,100036.00
2019-03-16T09:37:04.935Z,100042.35
2019-03-16T09:39:34.623Z,100034.92
2019-03-16T09:42:05.933Z,100028.55
2019-03-16T09:44:35.655Z,100023.75
2019-03-16T09:47:05.878Z,100016.11
2019-03-16T09:49:35.706Z,100025.16
2019-03-16T09:52:05.490Z,100012.62
2019-03-16T09:54:35.518Z,100015.36
2019-03-16T09:57:05.381Z,100018.72
2019-03-16T09:59:35.104Z,100016.38
2019-03-16T10:02:05.219Z,100001.25
2019-03-16T10:04:34.937Z,100007.44
2019-03-16T10:07:05.157Z,100003.30
2019-03-16T10:09:34.853Z,100000.69
2019-03-16T10:12:05.026Z,100000.69
2019-03-16T10:14:37.154Z,100008.05
2019-03-16T10:17:06.138Z,100007.13
2019-03-16T10:19:37.088Z,100016.02
2019-03-16T10:22:06.892Z,100015.43
2019-03-16T10:24:36.968Z,100011.89
2019-03-16T10:27:06.725Z,100015.80
2019-03-16T10:29:36.992Z,100004.16
2019-03-16T10:32:06.657Z,100024.21
2019-03-16T10:34:36.956Z,100019.46
2019-03-16T10:37:06.708Z,100011.89
2019-03-16T10:39:36.568Z,100024.81
2019-03-16T10:42:09.810Z,100010.94
2019-03-16T10:44:40.536Z,100001.94
2019-03-16T10:47:10.374Z,100003.03
2019-03-16T10:49:40.083Z,100002.44
2019-03-16T10:52:09.789Z,100003.75
2019-03-16T10:54:39.542Z,100001.48
2019-03-16T10:57:09.436Z,99999.59
2019-03-16T10:59:39.427Z,99998.16
2019-03-16T11:02:09.104Z,99977.80
2019-03-16T11:04:39.018Z,99992.09
2019-03-16T11:07:08.703Z,99977.42
2019-03-16T11:09:38.694Z,99972.45
2019-03-16T11:12:08.455Z,99974.94
2019-03-16T11:14:41.020Z,99954.07
2019-03-16T11:17:09.509Z,99963.20
2019-03-16T11:19:39.194Z,99957.39
2019-03-16T11:22:08.939Z,99963.95
2019-03-16T11:24:38.777Z,99949.73
2019-03-16T11:27:08.478Z,99954.23
2019-03-16T11:29:38.386Z,99952.20
2019-03-16T11:32:08.040Z,99954.69
2019-03-16T11:34:38.010Z,99965.38
2019-03-16T11:37:07.683Z,99944.03
2019-03-16T11:39:37.351Z,99954.34
2019-03-16T11:42:07.457Z,99944.28
2019-03-16T11:44:38.294Z,99939.06
2019-03-16T11:47:07.992Z,99951.27
2019-03-16T11:49:37.733Z,99945.34
2019-03-16T11:52:15.664Z,99946.17
2019-03-16T11:54:45.575Z,99932.16
2019-03-16T11:57:15.296Z,99927.06
2019-03-16T11:59:45.058Z,99914.47
2019-03-16T12:02:15.166Z,99929.20
2019-03-16T12:04:44.855Z,99928.36
2019-03-16T12:07:14.795Z,99936.31
2019-03-16T12:09:44.599Z,99928.64
2019-03-16T12:12:14.514Z,99942.16
2019-03-16T12:14:44.629Z,99931.25
2019-03-16T12:17:14.307Z,99940.97
2019-03-16T12:19:44.080Z,99942.86
2019-03-16T12:22:13.868Z,99941.09
2019-03-16T12:24:43.857Z,99945.47
2019-03-16T12:27:13.531Z,99935.62
2019-03-16T12:29:43.478Z,99936.00
2019-03-16T12:32:13.151Z,99932.20
2019-03-16T12:34:47.197Z,99929.34
2019-03-16T12:37:16.914Z,99926.14
2019-03-16T12:39:46.865Z,99933.13
2019-03-16T12:42:16.540Z,99917.94
2019-03-16T12:44:46.820Z,99897.14
2019-03-16T12:47:16.823Z,99893.56
2019-03-16T12:49:46.523Z,99885.00
2019-03-16T12:52:16.184Z,99888.66
2019-03-16T12:54:46.530Z,99894.25
2019-03-16T12:57:16.506Z,99892.68
2019-03-16T12:59:47.424Z,99890.91
2019-03-16T13:02:17.676Z,99885.08
2019-03-16T13:04:49.187Z,99893.19
2019-03-16T13:07:18.861Z,99886.52
2019-03-16T13:09:48.529Z,99879.62
2019-03-16T13:12:18.230Z,99885.81
2019-03-16T13:14:48.202Z,99885.21
2019-03-16T13:17:17.909Z,99887.13
2019-03-16T13:19:48.175Z,99896.73
2019-03-16T13:22:17.849Z,99890.93
2019-03-16T13:24:53.254Z,99888.92
2019-03-16T13:27:24.489Z,99883.56
2019-03-16T13:29:59.080Z,99899.22
2019-03-16T13:32:25.851Z,99899.92
2019-03-16T13:34:55.688Z,99884.14
2019-03-16T13:37:25.643Z,99893.99
2019-03-16T13:39:55.330Z,99893.16
2019-03-16T13:42:25.268Z,99882.36
2019-03-16T13:44:55.415Z,99877.00
2019-03-16T13:47:25.274Z,99887.48
2019-03-16T13:49:55.293Z,99877.30
2019-03-16T13:52:25.017Z,99872.28
2019-03-16T13:54:54.940Z,99872.07
2019-03-16T13:57:24.779Z,99871.57
2019-03-16T13:59:55.074Z,99863.29
2019-03-16T14:02:25.740Z,99865.91
2019-03-16T14:04:55.486Z,99855.45
2019-03-16T14:07:26.347Z,99855.09
2019-03-16T14:09:56.369Z,99841.09
2019-03-16T14:12:26.592Z,99845.01
2019-03-16T14:14:56.587Z,99833.72
2019-03-16T14:17:26.386Z,99821.00
2019-03-16T14:19:56.602Z,99832.02
2019-03-16T14:22:26.597Z,99830.84
2019-03-16T14:24:56.269Z,99838.69
2019-03-16T14:27:26.258Z,99818.63
2019-03-16T14:29:56.911Z,99820.73
2019-03-16T14:32:26.579Z,99808.27
2019-03-16T14:34:56.518Z,99820.03
2019-03-16T14:37:26.495Z,99839.63
2019-03-16T14:39:56.385Z,99835.57
2019-03-16T14:42:26.096Z,99811.36
2019-03-16T14:44:55.766Z,99840.92
2019-03-16T14:47:25.655Z,99818.02
2019-03-16T14:49:55.375Z,99832.25
2019-03-16T14:52:25.288Z,99832.25
2019-03-16T14:54:54.976Z,99828.67
2019-03-16T14:57:24.659Z,99813.83
2019-03-16T14:59:54.357Z,99812.63
2019-03-16T15:02:24.022Z,99812.59
2019-03-16T15:04:53.871Z,99804.98
2019-03-16T15:07:23.533Z,99795.61
2019-03-16T15:09:54.521Z,99801.07
2019-03-16T15:12:24.263Z,99804.25
2019-03-16T15:14:53.946Z,99800.56
2019-03-16T15:17:25.512Z,99802.95
2019-03-16T15:19:56.185Z,99798.32
2019-03-16T15:22:25.866Z,99795.01
2019-03-16T15:24:55.568Z,99789.08
2019-03-16T15:27:25.486Z,99787.67
2019-03-16T15:29:55.217Z,99793.97
2019-03-16T15:32:24.904Z,99785.86
2019-03-16T15:34:54.570Z,99781.00
2019-03-16T15:37:24.262Z,99788.74
2019-03-16T15:39:54.570Z,99781.61
2019-03-16T15:42:24.261Z,99782.21
2019-03-16T15:44:53.969Z,99767.61
2019-03-16T15:47:23.891Z,99778.42
2019-03-16T15:49:53.685Z,99765.09
2019-03-16T15:52:23.351Z,99774.51
2019-03-16T15:54:53.036Z,99769.98
2019-03-16T15:57:22.742Z,99763.13
2019-03-16T15:59:52.399Z,99764.06
2019-03-16T16:02:22.070Z,99751.84
2019-03-16T16:04:52.860Z,99754.92
2019-03-16T16:07:22.608Z,99751.27
2019-03-16T16:09:52.265Z,99757.20
2019-03-16T16:12:23.384Z,99751.60
2019-03-16T16:14:53.049Z,99749.73
2019-03-16T16:17:22.968Z,99744.77
2019-03-16T16:19:52.610Z,99749.40
2019-03-16T16:22:22.494Z,99747.49
2019-03-16T16:24:52.167Z,99745.14
2019-03-16T16:27:24.048Z,99744.17
2019-03-16T16:29:53.254Z,99752.61
2019-03-16T16:32:22.919Z,99745.62
2019-03-16T16:34:52.589Z,99741.56
2019-03-16T16:37:22.806Z,99737.78
2019-03-16T16:39:52.538Z,99741.83
2019-03-16T16:42:22.621Z,99751.91
2019-03-16T16:44:52.425Z,99738.52
2019-03-16T16:47:22.143Z,99735.20
2019-03-16T16:49:51.831Z,99742.67
2019-03-16T16:52:21.502Z,99735.44
2019-03-16T16:54:51.547Z,99731.66
2019-03-16T16:57:21.562Z,99725.03
2019-03-16T16:59:51.224Z,99726.47
2019-03-16T17:02:20.920Z,99718.77
2019-03-16T17:04:50.591Z,99721.14
2019-03-16T17:07:20.267Z,99719.84
2019-03-16T17:09:49.931Z,99722.78
2019-03-16T17:12:19.924Z,99715.79
2019-03-16T17:14:49.593Z,99714.25
2019-03-16T17:17:19.286Z,99719.84
2019-03-16T17:19:48.950Z,99722.58
2019-03-16T17:22:18.621Z,99718.77
2019-03-16T17:24:48.559Z,99720.08
2019-03-16T17:27:18.278Z,99723.39
2019-03-16T17:29:47.979Z,99714.62
2019-03-16T17:32:17.641Z,99723.99
2019-03-16T17:34:47.939Z,99716.52
2019-03-16T17:37:17.595Z,99708.33
2019-03-16T17:39:47.301Z,99714.25
2019-03-16T17:42:17.208Z,99713.08
2019-03-16T17:44:47.120Z,99719.87
2019-03-16T17:47:16.792Z,99716.77
2019-03-16T17:49:46.534Z,99715.36
2019-03-16T17:52:16.186Z,99718.33
2019-03-16T17:54:46.187Z,99715.72
2019-03-16T17:57:15.861Z,99720.48
2019-03-16T17:59:45.520Z,99707.29
2019-03-16T18:02:15.419Z,99713.34
2019-03-16T18:04:45.156Z,99711.34
2019-03-16T18:07:14.978Z,99708.22
2019-03-16T18:09:44.680Z,99709.20
2019-03-16T18:12:14.340Z,99715.36
2019-03-16T18:14:44.023Z,99711.44
2019-03-16T18:17:13.687Z,99703.73
2019-03-16T18:19:43.665Z,99704.58
2019-03-16T18:22:13.373Z,99711.70
2019-03-16T18:24:43.095Z,99705.88
2019-03-16T18:27:12.795Z,99709.09
2019-03-16T18:29:42.466Z,99704.70
2019-03-16T18:32:12.140Z,99702.44
2019-03-16T18:34:43.189Z,99706.11
2019-03-16T18:37:12.855Z,99693.87
2019-03-16T18:39:42.513Z,99693.87
2019-03-16T18:42:12.386Z,99687.47
2019-03-16T18:44:42.575Z,99677.59
2019-03-16T18:47:12.661Z,99687.57
2019-03-16T18:49:42.325Z,99682.02
2019-03-16T18:52:12.234Z,99686.40
2019-03-16T18:54:41.906Z,99680.20
2019-03-16T18:57:11.594Z,99672.38
2019-03-16T18:59:41.296Z,99663.04
2019-03-16T19:02:20.252Z,99663.50
2019-03-16T19:04:42.322Z,99662.67
2019-03-16T19:07:12.310Z,99662.67
2019-03-16T19:09:42.230Z,99655.20
2019-03-16T19:12:11.896Z,99654.00
2019-03-16T19:14:41.599Z,99662.80
2019-03-16T19:17:11.296Z,99658.75
2019-03-16T19:19:41.227Z,99649.38
2019-03-16T19:22:12.476Z,99643.32
2019-03-16T19:24:42.410Z,99641.08
2019-03-16T19:27:12.351Z,99636.09
2019-03-16T19:29:42.039Z,99635.48
2019-03-16T19:32:11.707Z,99639.88
2019-03-16T19:34:41.503Z,99639.04
2019-03-16T19:37:11.871Z,99637.27
2019-03-16T19:39:41.529Z,99632.04
2019-03-16T19:42:11.493Z,99628.59
2019-03-16T19:44:41.144Z,99612.83
2019-03-16T19:47:10.872Z,99614.84
2019-03-16T19:49:40.530Z,99606.31
2019-03-16T19:52:10.210Z,99598.48
2019-03-16T19:54:40.225Z,99587.23
2019-03-16T19:57:16.155Z,99587.47
2019-03-16T19:59:43.672Z,99580.00
2019-03-16T20:02:14.316Z,99579.96
2019-03-16T20:04:43.995Z,99584.48
2019-03-16T20:07:19.260Z,99576.38
2019-03-16T20:09:45.256Z,99569.85
2019-03-16T20:12:14.916Z,99569.24
2019-03-16T20:14:45.620Z,99569.52
2019-03-16T20:17:15.293Z,99564.86
2019-03-16T20:19:44.987Z,99582.66
2019-03-16T20:22:14.656Z,99563.78
2019-03-16T20:24:44.938Z,99567.70
2019-03-16T20:27:14.598Z,99549.33
2019-03-16T20:29:44.546Z,99553.94
2019-03-16T20:32:14.296Z,99543.83
2019-03-16T20:34:43.964Z,99537.30
2019-03-16T20:37:13.645Z,99540.61
2019-03-16T20:39:43.334Z,99533.62
2019-03-16T20:42:13.042Z,99536.83
2019-03-16T20:44:42.767Z,99540.01
2019-03-16T20:47:12.430Z,99517.95
2019-03-16T20:49:42.296Z,99525.40
2019-03-16T20:52:11.969Z,99513.42
2019-03-16T20:54:42.500Z,99513.37
2019-03-16T20:57:13.411Z,99524.65
2019-03-16T20:59:43.070Z,99520.73
2019-03-16T21:02:12.757Z,99520.13
2019-03-16T21:04:42.435Z,99514.29
2019-03-16T21:07:12.120Z,99508.23
2019-03-16T21:09:42.799Z,99511.67
2019-03-16T21:12:12.504Z,99504.67
2019-03-16T21:14:42.174Z,99499.54
2019-03-16T21:17:12.312Z,99495.63
2019-03-16T21:19:42.167Z,99492.65
2019-03-16T21:22:11.848Z,99493.48
2019-03-16T21:24:42.494Z,99487.42
2019-03-16T21:27:12.172Z,99481.48
2019-03-16T21:29:41.865Z,99476.36
2019-03-16T21:32:11.529Z,99464.69
2019-03-16T21:34:41.688Z,99477.50
2019-03-16T21:37:11.366Z,99474.05
2019-03-16T21:39:41.049Z,99464.36
2019-03-16T21:42:10.913Z,99463.39
2019-03-16T21:44:40.590Z,99456.38
2019-03-16T21:47:10.353Z,99452.83
2019-03-16T21:49:40.025Z,99450.00
2019-03-16T21:52:09.691Z,99450.33
2019-03-16T21:54:39.400Z,99438.94
2019-03-16T21:57:09.356Z,99442.23
2019-03-16T21:59:39.042Z,99444.37
2019-03-16T22:02:09.105Z,99442.09
2019-03-16T22:04:38.801Z,99448.62
2019-03-16T22:07:09.174Z,99432.20
2019-03-16T22:09:39.573Z,99426.09
2019-03-16T22:12:09.330Z,99418.45
2019-03-16T22:14:39.280Z,99420.95
2019-03-16T22:17:09.192Z,99421.75
2019-03-16T22:19:39.108Z,99412.50
2019-03-16T22:22:08.907Z,99404.30
2019-03-16T22:24:38.576Z,99404.52
2019-03-16T22:27:08.246Z,99402.84
2019-03-16T22:29:38.196Z,99403.68
2019-03-16T22:32:08.196Z,99396.82
2019-03-16T22:34:37.950Z,99401.21
2019-03-16T22:37:07.617Z,99400.23
2019-03-16T22:39:38.022Z,99407.96
2019-03-16T22:42:08.089Z,99385.14
2019-03-16T22:44:37.883Z,99396.82
2019-03-16T22:47:08.439Z,99393.70
2019-03-16T22:49:38.776Z,99385.87
2019-03-16T22:52:08.632Z,99374.95
2019-03-16T22:54:38.903Z,99373.50
2019-03-16T22:57:08.611Z,99375.48
2019-03-16T22:59:38.529Z,99379.91
2019-03-16T23:02:08.818Z,99373.86
2019-03-16T23:04:38.493Z,99375.09
2019-03-16T23:07:08.161Z,99362.72
2019-03-16T23:09:38.361Z,99360.25
2019-03-16T23:12:08.106Z,99348.67
2019-03-16T23:14:38.856Z,99355.83
2019-03-16T23:17:09.237Z,99344.69
2019-03-16T23:19:38.862Z,99341.39
2019-03-16T23:22:08.527Z,99334.38
2019-03-16T23:24:38.443Z,99326.08
2019-03-16T23:27:08.203Z,99320.38
2019-03-16T23:29:37.950Z,99324.23
2019-03-16T23:32:08.080Z,99325.03
2019-03-16T23:34:37.819Z,99312.80
2019-03-16T23:37:07.532Z,99319.19
2019-03-16T23:39:37.991Z,99311.02
2019-03-16T23:42:07.666Z,99310.34
2019-03-16T23:44:37.338Z,99312.33
2019-03-16T23:47:08.589Z,99310.66
2019-03-16T23:49:38.263Z,99311.17
2019-03-16T23:52:07.930Z,99296.80
2019-03-16T23:54:37.791Z,99295.14
2019-03-16T23:57:08.158Z,99291.43
2019-03-16T23:59:38.559Z,99285.84
